Time;durP1;ratioP1;P1;durP2;ratioP2;P2;SDS_P1;SDS_P2;PMS_P1;PMS_P2;Temp;Humidity;BMP_temperature;BMP_pressure;BME280_temperature;BME280_humidity;BME280_pressure;Samples;Min_cycle;Max_cycle;Signal;HPM_P1;HPM_P2
2022/12/14 00:01:51;;;;;;;44.70;23.45;;;-2.90;99.90;;;;;;5034733;28;20108;-73
2022/12/14 00:04:17;;;;;;;49.35;25.70;;;-2.80;99.90;;;;;;5039050;28;20350;-73
2022/12/14 00:06:43;;;;;;;45.58;24.13;;;-2.80;99.90;;;;;;5026990;28;20029;-73
2022/12/14 00:09:09;;;;;;;53.22;26.45;;;-2.90;99.90;;;;;;5035500;28;20080;-74
2022/12/14 00:11:35;;;;;;;58.92;27.33;;;-2.80;99.90;;;;;;5033720;28;20304;-73
2022/12/14 00:14:03;;;;;;;53.38;26.45;;;-2.90;99.90;;;;;;5066869;28;20049;-74
2022/12/14 00:16:31;;;;;;;48.20;24.67;;;-2.90;99.90;;;;;;5044879;28;20033;-74
2022/12/14 00:18:58;;;;;;;65.20;28.23;;;-2.80;99.90;;;;;;5034133;28;20226;-73
2022/12/14 00:21:25;;;;;;;49.45;25.73;;;-2.90;99.90;;;;;;5059573;28;20042;-73
2022/12/14 00:23:52;;;;;;;58.50;26.80;;;-1.50;99.90;;;;;;4995736;28;20037;-73
2022/12/14 00:26:19;;;;;;;51.08;27.48;;;-3.00;99.90;;;;;;5052529;28;20025;-73
2022/12/14 00:28:46;;;;;;;45.92;24.20;;;-0.90;99.90;;;;;;5057509;28;20116;-74
2022/12/14 00:31:13;;;;;;;48.20;26.50;;;-3.00;99.90;;;;;;5039690;28;20106;-73
2022/12/14 00:33:39;;;;;;;51.00;25.05;;;-3.00;99.90;;;;;;5019098;28;20041;-74
2022/12/14 00:36:06;;;;;;;47.72;25.63;;;-3.10;99.90;;;;;;5035963;28;20033;-74
2022/12/14 00:38:32;;;;;;;51.42;28.35;;;-3.10;99.90;;;;;;5069272;28;20037;-75
2022/12/14 00:40:58;;;;;;;49.38;25.50;;;-3.10;99.90;;;;;;5054493;28;20114;-73
2022/12/14 00:43:24;;;;;;;51.55;26.38;;;-3.10;99.90;;;;;;5038237;28;20080;-73
2022/12/14 00:45:50;;;;;;;56.65;27.48;;;-1.00;99.90;;;;;;5039600;28;20060;-74
2022/12/14 00:48:19;;;;;;;55.85;28.67;;;-3.30;99.90;;;;;;5074078;28;20328;-72
2022/12/14 00:50:49;;;;;;;59.13;29.55;;;-3.30;99.90;;;;;;5056773;28;20041;-73
2022/12/14 00:53:15;;;;;;;50.38;25.45;;;-2.80;99.90;;;;;;5039970;28;20060;-73
2022/12/14 00:55:43;;;;;;;51.33;26.90;;;-3.40;99.90;;;;;;5048423;28;20021;-74
2022/12/14 00:58:11;;;;;;;51.22;25.45;;;-2.10;99.90;;;;;;5038731;28;20300;-73
2022/12/14 01:00:36;;;;;;;49.95;25.42;;;-3.40;99.90;;;;;;5028693;28;20092;-73
2022/12/14 01:03:06;;;;;;;51.60;26.75;;;-3.50;99.90;;;;;;5052385;28;20049;-73
2022/12/14 01:05:38;;;;;;;50.90;25.77;;;-3.40;99.90;;;;;;5023998;28;20040;-73
2022/12/14 01:08:04;;;;;;;50.20;25.23;;;-2.10;99.90;;;;;;5051077;28;20203;-74
2022/12/14 01:10:30;;;;;;;48.15;25.80;;;-3.70;99.90;;;;;;5020645;28;20041;-74
2022/12/14 01:12:58;;;;;;;50.10;25.38;;;-3.80;99.90;;;;;;5041540;28;20057;-74
2022/12/14 01:15:29;;;;;;;48.38;25.67;;;-3.80;99.90;;;;;;5051713;28;20032;-74
2022/12/14 01:18:06;;;;;;;49.50;24.23;;;-5.10;99.90;;;;;;5026201;28;20087;-73
2022/12/14 01:20:32;;;;;;;51.35;24.85;;;-3.80;99.90;;;;;;5015510;28;20034;-74
2022/12/14 01:23:01;;;;;;;45.60;25.33;;;-3.90;99.90;;;;;;5027643;28;20128;-74
2022/12/14 01:25:27;;;;;;;43.75;23.77;;;-2.80;99.90;;;;;;5063614;28;20092;-75
2022/12/14 01:27:56;;;;;;;48.13;23.58;;;-4.10;99.90;;;;;;5019792;28;20075;-75
2022/12/14 01:30:22;;;;;;;49.90;24.42;;;-4.10;99.90;;;;;;5027898;28;20057;-73
2022/12/14 01:32:47;;;;;;;49.10;25.52;;;-4.10;99.90;;;;;;5029856;28;20155;-74
2022/12/14 01:35:16;;;;;;;49.90;25.90;;;-4.10;99.90;;;;;;5030842;28;20095;-74
2022/12/14 01:37:41;;;;;;;50.22;25.58;;;-4.00;99.90;;;;;;5027686;28;20038;-73
2022/12/14 01:40:16;;;;;;;47.20;23.95;;;-4.00;99.90;;;;;;5063618;28;20029;-74
2022/12/14 01:42:42;;;;;;;;;;;-4.10;99.90;;;;;;5043266;28;20333;-74
2022/12/14 01:45:19;;;;;;;47.55;23.13;;;-4.10;99.90;;;;;;5037233;28;19920;-74
2022/12/14 01:47:51;;;;;;;46.67;23.33;;;-4.10;99.90;;;;;;5045919;28;20036;-74
2022/12/14 01:50:26;;;;;;;45.85;23.08;;;-3.90;99.90;;;;;;5052493;28;20041;-74
2022/12/14 01:52:55;;;;;;;48.92;23.55;;;-4.10;99.90;;;;;;5065788;28;20046;-73
2022/12/14 01:55:21;;;;;;;51.80;23.05;;;-4.10;99.90;;;;;;5048469;28;20029;-73
2022/12/14 01:57:49;;;;;;;47.83;23.27;;;-4.20;99.90;;;;;;5027383;28;20036;-74
2022/12/14 02:00:24;;;;;;;48.22;23.95;;;-4.20;99.90;;;;;;5029594;28;20077;-73
2022/12/14 02:03:03;;;;;;;46.83;24.58;;;-4.30;99.90;;;;;;5013602;28;20087;-73
2022/12/14 02:05:33;;;;;;;45.58;22.45;;;-4.40;99.90;;;;;;5028171;28;20304;-73
2022/12/14 02:07:59;;;;;;;46.92;23.15;;;-3.10;99.90;;;;;;5013082;28;20132;-72
2022/12/14 02:10:27;;;;;;;44.97;21.80;;;-4.50;99.90;;;;;;4998452;28;20041;-72
2022/12/14 02:13:05;;;;;;;46.75;22.58;;;-3.40;99.90;;;;;;5030074;28;20030;-73
2022/12/14 02:15:33;;;;;;;46.45;22.67;;;-4.60;99.90;;;;;;5044178;28;20033;-73
2022/12/14 02:18:02;;;;;;;46.78;22.25;;;-4.70;99.90;;;;;;5021609;28;20037;-73
2022/12/14 02:20:37;;;;;;;48.58;22.42;;;-4.80;99.90;;;;;;5003362;28;20026;-73
2022/12/14 02:23:27;;;;;;;47.20;22.70;;;-4.50;99.90;;;;;;5065404;28;20072;-73
2022/12/14 02:26:30;;;;;;;41.35;21.23;;;-4.80;99.90;;;;;;5034025;28;20087;-74
2022/12/14 02:29:08;;;;;;;49.97;24.25;;;-4.70;99.90;;;;;;5053510;28;20077;-73
2022/12/14 02:31:49;;;;;;;47.60;22.85;;;-4.70;99.90;;;;;;5041082;28;20064;-72
2022/12/14 02:34:51;;;;;;;47.25;24.75;;;-4.60;99.90;;;;;;5027472;28;20244;-72
2022/12/14 02:37:39;;;;;;;54.67;27.02;;;-4.50;99.90;;;;;;5030405;28;20096;-73
2022/12/14 02:40:33;;;;;;;49.10;23.83;;;-4.40;99.90;;;;;;5029359;28;20307;-73
2022/12/14 02:43:15;;;;;;;50.92;24.77;;;-4.40;99.90;;;;;;5031438;28;20304;-73
2022/12/14 02:45:49;;;;;;;47.88;23.63;;;-4.50;99.90;;;;;;5042872;28;20068;-73
2022/12/14 02:48:17;;;;;;;50.42;25.00;;;-4.50;99.90;;;;;;5046667;28;20029;-73
2022/12/14 02:50:46;;;;;;;48.13;23.58;;;-4.50;99.90;;;;;;5009026;28;20280;-73
2022/12/14 02:53:28;;;;;;;44.45;21.60;;;-4.50;99.90;;;;;;5028558;28;20387;-73
2022/12/14 02:55:59;;;;;;;44.38;23.65;;;-4.50;99.90;;;;;;5045190;28;20042;-75
2022/12/14 02:58:27;;;;;;;42.83;22.23;;;-3.30;99.90;;;;;;5014356;28;20056;-73
2022/12/14 03:00:55;;;;;;;42.78;22.27;;;-4.70;99.90;;;;;;5032101;28;20056;-74
2022/12/14 03:03:21;;;;;;;49.53;24.50;;;-4.60;99.90;;;;;;5014987;28;20041;-74
2022/12/14 03:06:13;;;;;;;48.60;23.75;;;-4.60;99.90;;;;;;5047909;28;20064;-74
2022/12/14 03:08:41;;;;;;;51.53;23.17;;;-4.60;99.90;;;;;;5045165;28;20400;-74
2022/12/14 03:11:12;;;;;;;56.47;25.02;;;-4.70;99.90;;;;;;5030821;28;20036;-74
2022/12/14 03:13:52;;;;;;;49.28;23.52;;;-4.30;99.90;;;;;;5047090;28;20057;-75
2022/12/14 03:16:23;;;;;;;49.03;23.40;;;-4.60;99.90;;;;;;5053650;28;20197;-74
2022/12/14 03:18:56;;;;;;;53.33;25.10;;;-4.60;99.90;;;;;;5047603;28;20029;-74
2022/12/14 03:21:32;;;;;;;54.38;24.30;;;-3.10;99.90;;;;;;5030698;28;20046;-75
2022/12/14 03:24:01;;;;;;;46.75;24.02;;;-3.80;99.90;;;;;;5067190;28;20083;-74
2022/12/14 03:26:36;;;;;;;51.20;23.70;;;-4.50;99.90;;;;;;5050999;28;20029;-74
2022/12/14 03:29:16;;;;;;;51.92;24.38;;;-3.60;99.90;;;;;;5029573;28;20073;-74
2022/12/14 03:31:54;;;;;;;55.83;23.92;;;-4.10;99.90;;;;;;5035877;28;20033;-74
2022/12/14 03:34:30;;;;;;;50.80;24.02;;;-4.60;99.90;;;;;;5036703;28;20052;-74
2022/12/14 03:37:09;;;;;;;59.10;24.40;;;-4.70;99.90;;;;;;5029693;28;20087;-74
2022/12/14 03:39:37;;;;;;;47.92;23.40;;;-4.80;99.90;;;;;;5063738;28;20195;-73
2022/12/14 03:42:12;;;;;;;46.58;23.15;;;-5.10;99.90;;;;;;5030992;28;20040;-74
2022/12/14 03:44:46;;;;;;;47.15;22.75;;;-5.40;99.90;;;;;;5035729;28;21274;-74
2022/12/14 03:47:15;;;;;;;49.53;23.05;;;-5.30;99.90;;;;;;5030604;28;20088;-73
2022/12/14 03:49:56;;;;;;;43.13;21.38;;;-5.40;99.90;;;;;;5013160;28;20046;-73
2022/12/14 03:52:38;;;;;;;48.28;21.98;;;-5.30;99.90;;;;;;5046031;28;20030;-73
2022/12/14 03:55:24;;;;;;;45.63;21.92;;;-5.40;99.90;;;;;;5047228;28;20047;-73
2022/12/14 03:58:23;;;;;;;46.83;22.25;;;-5.30;99.90;;;;;;5047440;28;20049;-73
2022/12/14 04:00:51;;;;;;;51.03;23.50;;;-5.30;99.90;;;;;;5066061;28;20114;-73
2022/12/14 04:03:35;;;;;;;52.35;23.40;;;-5.30;99.90;;;;;;5033835;28;20045;-73
2022/12/14 04:06:17;;;;;;;52.85;24.27;;;-5.20;99.90;;;;;;5034225;28;20037;-72
2022/12/14 04:08:59;;;;;;;47.05;22.58;;;-5.10;99.90;;;;;;5032582;28;20354;-73
2022/12/14 04:29:55;;;;;;;48.58;21.52;;;-5.40;99.90;;;;;;4956047;28;20059;-73
2022/12/14 04:31:07;;;;;;;52.58;22.50;;;-5.40;99.90;;;;;;4937262;28;20111;-73
2022/12/14 04:33:48;;;;;;;49.45;22.92;;;-5.30;99.90;;;;;;4966473;28;20257;-74
2022/12/14 04:36:28;;;;;;;45.67;22.40;;;-5.30;99.90;;;;;;5037053;28;20041;-73
2022/12/14 04:39:01;;;;;;;50.47;21.67;;;-5.20;99.90;;;;;;5055653;28;20041;-73
2022/12/14 04:41:33;;;;;;;52.58;23.35;;;-3.80;99.90;;;;;;5050244;28;20053;-73
2022/12/14 04:44:05;;;;;;;48.78;23.13;;;-5.20;99.90;;;;;;5031009;28;20037;-73
2022/12/14 04:46:35;;;;;;;50.17;22.38;;;-5.20;99.90;;;;;;5017528;28;20037;-72
2022/12/14 04:49:03;;;;;;;47.38;22.63;;;-3.90;99.90;;;;;;5038432;28;20029;-73
2022/12/14 04:51:30;;;;;;;48.50;23.25;;;-4.90;99.90;;;;;;5031654;28;20112;-73
2022/12/14 04:54:03;;;;;;;47.67;22.83;;;-5.20;99.90;;;;;;5067567;28;20376;-74
2022/12/14 04:56:39;;;;;;;52.15;24.50;;;-5.20;99.90;;;;;;5033415;28;20468;-75
2022/12/14 04:59:06;;;;;;;58.78;27.25;;;-5.20;99.90;;;;;;5017641;28;21317;-74
2022/12/14 05:01:37;;;;;;;48.53;23.05;;;-5.20;99.90;;;;;;5029877;28;20037;-74
2022/12/14 05:04:08;;;;;;;47.80;21.65;;;-5.30;99.90;;;;;;5049379;28;20022;-74
2022/12/14 05:06:55;;;;;;;53.08;23.17;;;-5.20;99.90;;;;;;5019750;28;20109;-75
2022/12/14 05:09:31;;;;;;;52.72;23.77;;;-5.20;99.90;;;;;;5040901;28;20310;-75
2022/12/14 05:12:21;;;;;;;58.85;27.20;;;-5.20;99.90;;;;;;5037480;28;20063;-75
2022/12/14 05:15:01;;;;;;;53.50;25.23;;;-5.10;99.90;;;;;;5039018;28;20044;-74
2022/12/14 05:17:30;;;;;;;52.38;24.75;;;-5.10;99.90;;;;;;5028178;28;20022;-75
2022/12/14 05:19:55;;;;;;;53.28;25.63;;;-3.30;99.90;;;;;;5051855;28;20029;-75
2022/12/14 05:22:21;;;;;;;49.90;23.80;;;-5.10;99.90;;;;;;5034663;28;20353;-75
2022/12/14 05:24:47;;;;;;;53.92;25.60;;;-5.20;99.90;;;;;;5030929;28;20030;-74
2022/12/14 05:27:20;;;;;;;58.90;27.15;;;-5.10;99.90;;;;;;5023854;28;20239;-74
2022/12/14 05:29:52;;;;;;;52.55;23.40;;;-5.20;99.90;;;;;;5047024;28;20532;-74
2022/12/14 05:32:18;;;;;;;53.97;23.55;;;-5.20;99.90;;;;;;5048846;28;20055;-74
2022/12/14 05:34:43;;;;;;;47.95;22.13;;;-5.10;99.90;;;;;;5031976;28;20096;-74
2022/12/14 05:37:09;;;;;;;56.60;23.45;;;-5.30;99.90;;;;;;5032970;28;20104;-74
2022/12/14 05:39:35;;;;;;;49.05;22.73;;;-5.40;99.90;;;;;;5040230;28;20028;-74
2022/12/14 05:42:00;;;;;;;49.00;21.90;;;-5.30;99.90;;;;;;5054638;28;20289;-73
2022/12/14 05:44:26;;;;;;;48.63;22.63;;;-5.40;99.90;;;;;;5046706;28;20312;-73
2022/12/14 05:46:52;;;;;;;51.13;24.10;;;-3.50;99.90;;;;;;5032964;28;20477;-74
2022/12/14 05:49:18;;;;;;;50.97;23.35;;;-5.30;99.90;;;;;;5051882;28;20371;-73
2022/12/14 05:51:44;;;;;;;47.95;21.40;;;-5.40;99.90;;;;;;5021299;28;20036;-74
2022/12/14 05:54:09;;;;;;;49.17;22.08;;;-5.40;99.90;;;;;;5017522;28;20029;-74
2022/12/14 05:56:35;;;;;;;50.42;21.83;;;-5.50;99.90;;;;;;5013657;28;20194;-74
2022/12/14 05:59:14;;;;;;;52.22;21.83;;;-4.00;99.90;;;;;;5032191;28;20029;-74
2022/12/14 06:01:44;;;;;;;42.38;21.73;;;-5.60;99.90;;;;;;5055569;28;20308;-75
2022/12/14 06:04:12;;;;;;;44.17;20.05;;;-5.60;99.90;;;;;;5028608;28;20056;-75
2022/12/14 06:06:37;;;;;;;49.15;21.90;;;-5.70;99.90;;;;;;5029036;28;20304;-74
2022/12/14 06:09:12;;;;;;;46.00;21.20;;;-3.60;99.90;;;;;;5040292;28;20037;-73
2022/12/14 06:11:39;;;;;;;54.67;22.63;;;-5.60;99.90;;;;;;5054314;28;20077;-74
2022/12/14 06:14:06;;;;;;;50.78;21.83;;;-5.60;99.90;;;;;;5042510;28;20044;-75
2022/12/14 06:16:32;;;;;;;47.67;21.10;;;-5.70;99.90;;;;;;5069840;28;20037;-73
2022/12/14 06:19:00;;;;;;;47.10;21.38;;;-5.80;99.90;;;;;;5040626;28;20100;-75
2022/12/14 06:21:32;;;;;;;49.28;21.52;;;-5.90;99.90;;;;;;5039891;28;20335;-74
2022/12/14 06:23:58;;;;;;;48.08;20.65;;;-6.00;99.90;;;;;;5024066;28;20075;-75
2022/12/14 06:26:25;;;;;;;53.13;21.92;;;-6.10;99.90;;;;;;5057706;28;20263;-75
2022/12/14 06:28:51;;;;;;;47.03;21.77;;;-6.20;99.90;;;;;;5043274;28;20116;-74
2022/12/14 06:31:23;;;;;;;43.78;20.50;;;-6.20;99.90;;;;;;5060189;28;20037;-75
2022/12/14 06:33:50;;;;;;;45.83;20.50;;;-6.10;99.90;;;;;;5053995;28;20045;-75
2022/12/14 06:36:25;;;;;;;42.60;19.27;;;-4.40;99.90;;;;;;5058419;28;20093;-74
2022/12/14 06:38:52;;;;;;;53.25;23.08;;;-5.80;99.90;;;;;;5030939;28;20327;-73
2022/12/14 06:41:19;;;;;;;46.15;21.48;;;-6.30;99.90;;;;;;5055161;28;20033;-75
2022/12/14 06:43:45;;;;;;;52.22;21.58;;;-6.30;99.90;;;;;;5042404;28;20032;-75
2022/12/14 06:46:14;;;;;;;45.75;21.95;;;-6.40;99.90;;;;;;5010535;28;20036;-74
2022/12/14 06:48:40;;;;;;;50.60;21.98;;;-6.40;99.90;;;;;;5071355;28;20052;-75
2022/12/14 06:51:07;;;;;;;48.28;21.45;;;-6.30;99.90;;;;;;5035756;28;20033;-76
2022/12/14 06:53:34;;;;;;;50.42;22.73;;;-6.20;99.90;;;;;;5039569;28;20048;-75
2022/12/14 06:56:06;;;;;;;53.20;22.50;;;-4.30;99.90;;;;;;5056045;28;20034;-74
2022/12/14 06:58:32;;;;;;;50.70;20.55;;;-6.20;99.90;;;;;;5023108;28;20033;-75
2022/12/14 07:01:20;;;;;;;54.45;23.52;;;-5.80;99.90;;;;;;5049438;28;20025;-75
2022/12/14 07:03:55;;;;;;;46.75;21.58;;;-6.30;99.90;;;;;;5057930;28;20036;-75
2022/12/14 07:06:25;;;;;;;49.65;22.10;;;-4.80;99.90;;;;;;5048930;28;20220;-73
2022/12/14 07:08:53;;;;;;;51.13;22.05;;;-5.40;99.90;;;;;;5031366;28;20045;-74
2022/12/14 07:11:19;;;;;;;51.33;23.02;;;-6.20;99.90;;;;;;5032066;28;20033;-73
2022/12/14 07:13:45;;;;;;;57.42;23.08;;;-6.20;99.90;;;;;;5034080;28;20040;-73
2022/12/14 07:16:17;;;;;;;49.38;22.33;;;-6.20;99.90;;;;;;5035785;28;20239;-73
2022/12/14 07:18:43;;;;;;;53.83;23.48;;;-5.10;99.90;;;;;;5037209;28;20041;-73
2022/12/14 07:21:13;;;;;;;44.38;20.40;;;-6.30;99.90;;;;;;5043259;28;20025;-74
2022/12/14 07:23:40;;;;;;;50.38;21.55;;;-5.70;99.90;;;;;;5041803;28;20036;-75
2022/12/14 07:26:12;;;;;;;45.47;21.23;;;-6.30;99.90;;;;;;5030972;28;20040;-74
2022/12/14 07:28:39;;;;;;;50.63;22.63;;;-6.10;99.90;;;;;;5028562;28;20565;-76
2022/12/14 07:31:09;;;;;;;53.90;21.02;;;-6.10;99.90;;;;;;5061361;28;20041;-75
2022/12/14 07:33:35;;;;;;;49.75;23.17;;;-6.20;99.90;;;;;;5025935;28;20353;-75
2022/12/14 07:36:06;;;;;;;50.45;21.48;;;-6.20;99.90;;;;;;5067872;28;20037;-74
2022/12/14 07:38:34;;;;;;;56.08;22.48;;;-6.20;99.90;;;;;;5030421;28;20091;-74
2022/12/14 07:41:11;;;;;;;56.13;23.60;;;-6.30;99.90;;;;;;5057669;28;20037;-74
2022/12/14 07:43:41;;;;;;;53.10;22.67;;;-6.20;99.90;;;;;;5045642;28;20168;-75
2022/12/14 07:46:13;;;;;;;46.95;23.10;;;-6.20;99.90;;;;;;5052351;28;20468;-75
2022/12/14 07:48:47;;;;;;;55.38;23.70;;;-6.20;99.90;;;;;;5025073;28;21168;-73
2022/12/14 07:51:17;;;;;;;52.05;21.63;;;-6.10;99.90;;;;;;5031297;28;20036;-73
2022/12/14 07:53:43;;;;;;;47.20;21.15;;;-6.10;99.90;;;;;;5044949;28;20164;-74
2022/12/14 07:56:15;;;;;;;49.45;20.90;;;-6.20;99.90;;;;;;5053534;28;20029;-73
2022/12/14 07:58:42;;;;;;;46.50;20.92;;;-6.30;99.90;;;;;;5041874;28;20108;-73
2022/12/14 08:01:07;;;;;;;51.78;21.40;;;-6.40;99.90;;;;;;5049564;28;20041;-73
2022/12/14 08:03:33;;;;;;;47.20;20.05;;;-6.60;99.90;;;;;;5056600;28;20292;-74
2022/12/14 08:06:03;;;;;;;53.05;21.58;;;-6.60;99.90;;;;;;5056996;28;20036;-72
2022/12/14 08:08:29;;;;;;;43.85;19.55;;;-6.60;99.90;;;;;;5033711;28;20042;-71
2022/12/14 08:10:54;;;;;;;44.58;19.38;;;-4.90;99.90;;;;;;5017644;28;20080;-73
2022/12/14 08:13:20;;;;;;;40.80;18.60;;;-6.80;99.90;;;;;;5054605;28;20037;-73
2022/12/14 08:15:46;;;;;;;47.05;20.55;;;-6.80;99.90;;;;;;5055355;28;20040;-73
2022/12/14 08:18:11;;;;;;;43.15;18.83;;;-6.80;99.90;;;;;;5054965;28;20231;-72
2022/12/14 08:20:37;;;;;;;42.97;19.10;;;-6.70;99.90;;;;;;5042095;28;20033;-72
2022/12/14 08:23:03;;;;;;;40.08;19.30;;;-6.70;99.90;;;;;;5055819;28;20039;-72
2022/12/14 08:25:28;;;;;;;43.22;20.63;;;-6.70;99.90;;;;;;5016172;28;20041;-72
2022/12/14 08:27:54;;;;;;;38.17;17.60;;;-6.50;99.90;;;;;;4999060;28;20070;-74
2022/12/14 08:30:20;;;;;;;42.70;20.23;;;-6.20;99.90;;;;;;5049404;28;20045;-73
2022/12/14 08:32:46;;;;;;;44.50;19.98;;;-5.80;99.90;;;;;;5045111;28;20045;-73
2022/12/14 08:35:11;;;;;;;46.08;20.45;;;-5.70;99.90;;;;;;5028186;28;20030;-74
2022/12/14 08:37:37;;;;;;;45.92;20.27;;;-3.80;99.90;;;;;;5043938;28;20029;-74
2022/12/14 08:40:06;;;;;;;43.70;20.40;;;-5.50;99.90;;;;;;4989373;28;20035;-75
2022/12/14 08:42:35;;;;;;;49.10;21.17;;;-5.50;99.90;;;;;;5044498;28;20275;-74
2022/12/14 08:45:01;;;;;;;45.72;20.60;;;-4.00;99.90;;;;;;5036030;28;20047;-74
2022/12/14 08:47:27;;;;;;;49.85;23.77;;;-5.30;99.90;;;;;;5038348;28;20041;-74
2022/12/14 08:49:53;;;;;;;43.67;20.27;;;-5.30;99.90;;;;;;5057650;28;20109;-74
2022/12/14 08:52:20;;;;;;;49.45;22.08;;;-5.30;99.90;;;;;;5027168;28;20045;-74
2022/12/14 08:54:46;;;;;;;42.90;20.80;;;-5.50;99.90;;;;;;5065969;28;20038;-74
2022/12/14 08:57:20;;;;;;;45.50;21.75;;;-5.50;99.90;;;;;;5040990;28;20334;-74
2022/12/14 08:59:46;;;;;;;49.80;22.40;;;-5.10;99.90;;;;;;5015269;28;20446;-74
2022/12/14 09:02:12;;;;;;;40.10;20.98;;;-5.40;99.90;;;;;;5054069;28;20091;-73
2022/12/14 09:04:37;;;;;;;42.33;21.92;;;-5.30;99.90;;;;;;5038800;28;20030;-75
2022/12/14 09:07:03;;;;;;;43.60;21.23;;;-4.20;99.90;;;;;;5035655;28;20253;-74
2022/12/14 09:09:29;;;;;;;49.40;21.05;;;-5.00;99.90;;;;;;5025071;28;20025;-74
2022/12/14 09:11:54;;;;;;;47.75;22.00;;;-4.90;99.90;;;;;;5058923;28;20466;-74
2022/12/14 09:14:20;;;;;;;45.90;21.77;;;-4.80;99.90;;;;;;5046318;28;20029;-74
2022/12/14 09:16:46;;;;;;;44.42;19.65;;;-4.70;99.90;;;;;;5053584;28;20044;-74
2022/12/14 09:19:11;;;;;;;45.95;20.27;;;-4.50;99.90;;;;;;5039759;28;20049;-75
2022/12/14 09:21:38;;;;;;;48.13;21.98;;;-4.10;99.90;;;;;;5055393;28;20267;-74
2022/12/14 09:24:05;;;;;;;42.72;21.83;;;-1.80;99.90;;;;;;5059967;28;20033;-75
2022/12/14 09:26:32;;;;;;;42.40;20.38;;;-2.60;99.90;;;;;;5033528;28;20292;-75
2022/12/14 09:29:01;;;;;;;40.55;19.83;;;-1.90;99.90;;;;;;5039965;28;20042;-75
2022/12/14 09:31:27;;;;;;;40.72;20.20;;;-2.00;99.90;;;;;;5071506;28;20032;-76
2022/12/14 09:33:53;;;;;;;42.38;18.55;;;-1.50;99.90;;;;;;5040218;28;20045;-75
2022/12/14 09:36:22;;;;;;;34.80;16.23;;;-0.70;99.90;;;;;;5018872;28;20100;-75
2022/12/14 09:38:48;;;;;;;33.28;17.08;;;-0.60;99.90;;;;;;5037923;28;20029;-76
2022/12/14 09:41:32;;;;;;;33.28;17.88;;;-0.60;99.90;;;;;;5038553;28;20101;-75
2022/12/14 09:44:25;;;;;;;38.65;18.20;;;-0.60;99.90;;;;;;5040399;28;20320;-77
2022/12/14 09:47:16;;;;;;;31.52;16.75;;;-0.90;99.90;;;;;;5026185;28;20114;-76
2022/12/14 09:50:06;;;;;;;31.33;16.30;;;-0.90;99.90;;;;;;5059861;28;20025;-74
2022/12/14 09:52:43;;;;;;;28.00;15.80;;;-0.40;99.90;;;;;;5044759;28;20097;-76
2022/12/14 09:55:39;;;;;;;28.80;15.25;;;-0.70;99.90;;;;;;5039646;28;20036;-74
2022/12/14 09:58:15;;;;;;;30.85;17.02;;;-0.80;99.90;;;;;;5044723;28;20132;-74
2022/12/14 10:01:15;;;;;;;35.67;17.30;;;-0.60;99.90;;;;;;5039045;28;20060;-73
2022/12/14 10:03:52;;;;;;;33.17;16.08;;;-0.60;99.90;;;;;;5036343;28;20169;-75
2022/12/14 10:06:21;;;;;;;33.22;16.23;;;-0.50;99.90;;;;;;5036460;28;20029;-76
2022/12/14 10:08:55;;;;;;;33.47;16.98;;;-0.40;99.90;;;;;;5025230;28;20049;-75
2022/12/14 10:11:56;;;;;;;32.15;17.13;;;-0.20;99.90;;;;;;5039822;28;20211;-75
2022/12/14 10:14:42;;;;;;;31.13;18.02;;;0.40;99.90;;;;;;5022026;28;20044;-75
2022/12/14 10:17:08;;;;;;;32.38;17.92;;;0.00;99.90;;;;;;5059318;28;20193;-75
2022/12/14 10:20:04;;;;;;;29.63;17.08;;;0.20;99.90;;;;;;5034309;28;20095;-74
2022/12/14 10:22:41;;;;;;;31.92;16.83;;;0.90;99.90;;;;;;5033544;28;20034;-74
2022/12/14 10:25:18;;;;;;;31.38;17.48;;;0.90;99.90;;;;;;5035278;28;20033;-73
2022/12/14 10:27:54;;;;;;;32.88;18.08;;;0.60;99.90;;;;;;5043840;28;20088;-74
2022/12/14 10:30:20;;;;;;;33.90;17.25;;;0.50;99.90;;;;;;5015803;28;20042;-74
2022/12/14 10:33:12;;;;;;;33.17;17.92;;;0.60;99.90;;;;;;5033201;28;20231;-74
2022/12/14 10:35:51;;;;;;;31.35;17.33;;;0.70;99.90;;;;;;5048875;28;20038;-72
2022/12/14 10:38:24;;;;;;;27.45;15.18;;;1.10;99.90;;;;;;5052389;28;20030;-72
2022/12/14 10:41:12;;;;;;;25.02;15.18;;;1.20;99.90;;;;;;5034637;28;20248;-73
2022/12/14 10:43:53;;;;;;;25.70;14.50;;;1.80;99.90;;;;;;5061167;28;20356;-73
2022/12/14 10:46:54;;;;;;;27.48;15.30;;;1.80;99.90;;;;;;5034135;28;20067;-74
2022/12/14 10:49:43;;;;;;;24.35;13.57;;;2.00;99.90;;;;;;5050326;28;20029;-73
2022/12/14 10:52:15;;;;;;;25.48;13.75;;;3.40;99.90;;;;;;5003638;28;20042;-72
2022/12/14 10:54:55;;;;;;;25.67;13.27;;;2.40;99.90;;;;;;5047968;28;20029;-73
2022/12/14 10:57:25;;;;;;;25.40;14.52;;;2.90;99.90;;;;;;5029075;28;20103;-72
2022/12/14 10:59:51;;;;;;;26.25;14.13;;;3.00;99.90;;;;;;5038890;28;20041;-72
2022/12/14 11:02:42;;;;;;;25.88;15.43;;;2.90;99.90;;;;;;5037846;28;20114;-73
2022/12/14 11:05:30;;;;;;;27.40;15.60;;;3.60;99.90;;;;;;5054132;28;20055;-73
2022/12/14 11:07:56;;;;;;;25.45;14.85;;;3.50;99.90;;;;;;5082276;28;20064;-73
2022/12/14 11:10:33;;;;;;;24.40;13.85;;;3.90;99.90;;;;;;5054583;28;20504;-73
2022/12/14 11:13:00;;;;;;;23.20;13.45;;;4.20;99.90;;;;;;5046537;28;20061;-72
2022/12/14 11:15:33;;;;;;;26.55;14.45;;;3.80;99.90;;;;;;5070876;28;20025;-74
2022/12/14 11:18:29;;;;;;;25.90;14.93;;;3.60;99.90;;;;;;5030905;28;20037;-72
2022/12/14 11:21:04;;;;;;;23.20;13.68;;;4.20;99.90;;;;;;5036216;28;20052;-73
2022/12/14 11:23:40;;;;;;;23.27;13.50;;;4.40;99.90;;;;;;5041723;28;20041;-72
2022/12/14 11:26:11;;;;;;;23.40;13.25;;;4.80;99.90;;;;;;5039652;28;20046;-74
2022/12/14 11:28:53;;;;;;;23.90;13.70;;;4.70;99.90;;;;;;5050077;28;20110;-73
2022/12/14 11:31:19;;;;;;;22.85;13.23;;;3.50;99.90;;;;;;5032034;28;20108;-73
2022/12/14 11:33:59;;;;;;;27.40;14.18;;;2.60;99.90;;;;;;5052730;28;20048;-73
2022/12/14 11:36:31;;;;;;;23.88;14.10;;;2.40;99.90;;;;;;5061656;28;20067;-74
2022/12/14 11:39:14;;;;;;;24.60;14.15;;;3.10;99.90;;;;;;5030532;28;20076;-74
2022/12/14 11:41:46;;;;;;;24.25;12.98;;;3.40;99.90;;;;;;5033648;28;20097;-73
2022/12/14 11:44:15;;;;;;;20.05;12.40;;;3.60;99.90;;;;;;5038597;28;20035;-73
2022/12/14 11:46:48;;;;;;;19.08;10.93;;;2.70;99.90;;;;;;5022847;28;20021;-73
2022/12/14 11:49:34;;;;;;;20.17;12.75;;;2.90;99.90;;;;;;5048045;28;20025;-73
2022/12/14 11:52:17;;;;;;;25.08;12.18;;;3.30;99.90;;;;;;5028188;28;20087;-73
2022/12/14 11:54:52;;;;;;;21.48;12.60;;;3.60;99.90;;;;;;5051085;28;20056;-74
2022/12/14 11:57:23;;;;;;;;;;;4.30;99.90;;;;;;5051556;28;20065;-74
2022/12/14 12:00:02;;;;;;;21.00;11.82;;;3.80;99.90;;;;;;5055838;28;20107;-73
2022/12/14 12:02:34;;;;;;;19.88;12.32;;;3.60;99.90;;;;;;5034951;28;20029;-76
2022/12/14 12:05:14;;;;;;;19.17;12.43;;;3.60;99.90;;;;;;5022632;28;20129;-76
2022/12/14 12:08:01;;;;;;;23.45;12.55;;;4.10;99.90;;;;;;5072499;28;20072;-75
2022/12/14 12:10:40;;;;;;;20.98;11.70;;;1.90;99.90;;;;;;5022512;28;20207;-76
2022/12/14 12:13:16;;;;;;;25.17;13.82;;;1.70;99.90;;;;;;5040792;28;20091;-75
2022/12/14 12:16:34;;;;;;;25.02;13.52;;;0.90;99.90;;;;;;5021199;28;20029;-75
2022/12/14 12:19:23;;;;;;;21.25;12.32;;;0.70;99.90;;;;;;5035111;28;20033;-74
2022/12/14 12:21:50;;;;;;;22.45;13.60;;;-1.10;99.90;;;;;;5047452;28;20100;-75
2022/12/14 12:24:29;;;;;;;22.85;12.35;;;0.10;99.90;;;;;;5020826;28;20045;-76
2022/12/14 12:27:10;;;;;;;21.02;12.27;;;-0.30;99.90;;;;;;5042391;28;20103;-75
2022/12/14 12:29:48;;;;;;;19.75;10.45;;;-0.10;99.90;;;;;;5040238;28;20040;-75
2022/12/14 12:32:19;;;;;;;20.05;10.88;;;-0.30;99.90;;;;;;5028620;28;20088;-75
2022/12/14 12:34:51;;;;;;;19.65;11.07;;;-0.50;99.90;;;;;;5074252;28;20096;-74
2022/12/14 12:37:39;;;;;;;19.05;10.43;;;-0.60;99.90;;;;;;5041694;28;20017;-75
2022/12/14 12:45:07;;;;;;;;;;;;;;;;;;;;;
2022/12/14 12:47:41;;;;;;;20.20;10.05;;;-0.50;99.90;;;;;;5046457;28;20261;-76
2022/12/14 12:50:23;;;;;;;16.88;9.75;;;0.80;99.90;;;;;;5032960;28;20243;-73
2022/12/14 12:52:52;;;;;;;20.23;10.70;;;-0.50;99.90;;;;;;5036590;28;20376;-74
2022/12/14 12:55:20;;;;;;;18.40;10.23;;;0.60;99.90;;;;;;5037103;28;20100;-73
2022/12/14 12:57:49;;;;;;;21.27;10.52;;;-0.30;99.90;;;;;;5037244;28;20339;-74
2022/12/14 13:00:24;;;;;;;18.70;10.68;;;-0.50;99.90;;;;;;5054969;28;20078;-74
2022/12/14 13:02:56;;;;;;;17.77;10.40;;;-0.50;99.90;;;;;;5057104;28;20036;-74
2022/12/14 13:05:24;;;;;;;18.80;10.85;;;-0.40;99.90;;;;;;5043481;28;20036;-75
2022/12/14 13:07:52;;;;;;;19.30;10.05;;;-0.40;99.90;;;;;;5044167;28;20043;-74
2022/12/14 13:10:22;;;;;;;21.20;10.90;;;0.40;99.90;;;;;;5029288;28;20061;-74
2022/12/14 13:12:58;;;;;;;20.80;10.85;;;-0.50;99.90;;;;;;5045447;28;20041;-74
2022/12/14 13:16:11;;;;;;;20.52;10.93;;;-0.50;99.90;;;;;;5039114;28;20065;-75
2022/12/14 13:18:44;;;;;;;17.45;10.38;;;-0.30;99.90;;;;;;4998273;28;20037;-75
2022/12/14 13:21:31;;;;;;;21.00;10.52;;;-0.40;99.90;;;;;;5041404;28;20042;-74